Time;durP1;ratioP1;P1;durP2;ratioP2;P2;SDS_P1;SDS_P2;PMS_P1;PMS_P2;Temp;Humidity;BMP_temperature;BMP_pressure;BME280_temperature;BME280_humidity;BME280_pressure;Samples;Min_cycle;Max_cycle;Signal;HPM_P1;HPM_P2
2023/11/08 00:02:10;;;;;;;10.80;4.35;;;11.70;61.40;;;;;;6126003;28;20039;-70
2023/11/08 00:05:11;;;;;;;8.63;3.60;;;11.70;61.30;;;;;;6126959;29;20036;-68
2023/11/08 00:08:13;;;;;;;5.18;2.97;;;11.70;61.40;;;;;;6124016;29;20024;-68
2023/11/08 00:11:15;;;;;;;7.97;3.47;;;11.70;61.40;;;;;;6116690;29;20031;-72
2023/11/08 00:14:16;;;;;;;13.68;4.53;;;11.60;61.30;;;;;;6115777;28;20035;-68
2023/11/08 00:17:17;;;;;;;9.20;3.90;;;11.60;61.30;;;;;;6116837;29;20476;-69
2023/11/08 00:20:18;;;;;;;16.77;4.50;;;11.40;62.20;;;;;;6116101;29;20028;-68
2023/11/08 00:23:19;;;;;;;11.50;4.50;;;11.60;61.70;;;;;;6116719;29;20035;-68
2023/11/08 00:26:20;;;;;;;7.65;3.60;;;11.60;61.90;;;;;;6116501;29;20039;-68
2023/11/08 00:29:23;;;;;;;9.20;3.95;;;11.50;62.10;;;;;;6115825;29;20085;-68
2023/11/08 00:32:25;;;;;;;8.23;4.80;;;11.50;62.20;;;;;;6130518;28;20031;-67
2023/11/08 00:35:26;;;;;;;12.88;4.35;;;11.50;62.30;;;;;;6138516;29;20092;-70
2023/11/08 00:38:27;;;;;;;9.98;4.63;;;11.50;62.20;;;;;;6136005;29;20034;-69
2023/11/08 00:41:28;;;;;;;13.05;5.05;;;11.50;62.10;;;;;;6098578;28;20437;-68
2023/11/08 00:44:29;;;;;;;23.80;4.93;;;11.40;62.30;;;;;;6114985;28;20366;-70
2023/11/08 00:47:30;;;;;;;11.95;4.60;;;11.40;62.30;;;;;;6116302;28;20643;-69
2023/11/08 00:50:31;;;;;;;8.57;3.92;;;11.40;62.30;;;;;;6113651;29;20034;-70
2023/11/08 00:53:32;;;;;;;11.38;4.43;;;11.30;62.30;;;;;;6116027;28;20032;-71
2023/11/08 00:56:33;;;;;;;11.38;4.80;;;11.30;62.40;;;;;;6098218;29;20168;-70
2023/11/08 00:59:35;;;;;;;12.48;4.35;;;11.30;62.50;;;;;;6114106;29;20206;-68
2023/11/08 01:02:36;;;;;;;12.45;5.03;;;11.30;62.40;;;;;;6115513;28;20054;-68
2023/11/08 01:05:37;;;;;;;10.00;4.70;;;11.30;62.30;;;;;;6114937;28;20039;-69
2023/11/08 01:08:38;;;;;;;9.90;4.57;;;11.30;62.30;;;;;;6114077;28;20103;-68
2023/11/08 01:11:41;;;;;;;13.02;4.15;;;11.30;62.40;;;;;;6114480;29;20165;-67
2023/11/08 01:14:42;;;;;;;7.63;3.55;;;11.30;63.30;;;;;;6098857;28;20073;-69
2023/11/08 01:17:44;;;;;;;11.73;3.75;;;11.20;62.50;;;;;;6116352;29;20031;-69
2023/11/08 01:20:46;;;;;;;6.88;3.42;;;11.20;62.50;;;;;;6116164;29;20028;-69
2023/11/08 01:23:48;;;;;;;10.07;3.75;;;11.10;62.50;;;;;;6115382;29;20039;-67
2023/11/08 01:26:49;;;;;;;10.48;3.80;;;11.10;62.30;;;;;;6114141;29;20495;-70
2023/11/08 01:29:50;;;;;;;6.70;3.17;;;11.10;62.40;;;;;;6114216;29;20039;-67
2023/11/08 01:32:51;;;;;;;12.60;3.83;;;11.10;62.40;;;;;;6132875;29;20031;-67
2023/11/08 01:35:52;;;;;;;8.23;3.25;;;11.10;62.50;;;;;;6138749;29;20140;-69
2023/11/08 01:38:56;;;;;;;10.90;2.92;;;11.10;62.50;;;;;;6114242;29;20413;-69
2023/11/08 01:41:57;;;;;;;5.63;2.65;;;11.00;62.20;;;;;;6115556;29;20168;-70
2023/11/08 01:44:57;;;;;;;5.68;2.20;;;11.00;62.20;;;;;;6113572;28;20036;-68
2023/11/08 01:47:58;;;;;;;4.13;1.98;;;11.00;62.00;;;;;;6113233;29;20044;-71
2023/11/08 01:51:01;;;;;;;10.60;2.38;;;10.90;61.80;;;;;;6115134;28;20024;-69
2023/11/08 01:54:03;;;;;;;5.38;2.75;;;10.90;61.80;;;;;;6113962;28;20420;-68
2023/11/08 01:57:04;;;;;;;4.25;2.20;;;10.90;61.70;;;;;;6114272;28;20049;-67
2023/11/08 02:00:08;;;;;;;4.65;2.00;;;10.90;61.70;;;;;;6117265;28;20114;-69
2023/11/08 02:03:17;;;;;;;4.88;2.80;;;10.80;61.60;;;;;;6128410;29;20093;-68
2023/11/08 02:06:18;;;;;;;5.90;2.38;;;10.80;61.80;;;;;;6126029;29;20138;-68
2023/11/08 02:09:20;;;;;;;7.53;3.05;;;10.80;61.90;;;;;;6110732;28;20512;-67
2023/11/08 02:12:22;;;;;;;7.93;3.30;;;10.80;62.00;;;;;;6122088;29;20040;-68
2023/11/08 02:15:25;;;;;;;6.13;3.00;;;10.80;62.00;;;;;;6120461;29;20075;-68
2023/11/08 02:18:26;;;;;;;6.57;2.65;;;10.80;62.10;;;;;;6117191;29;20082;-70
2023/11/08 02:21:27;;;;;;;7.43;3.90;;;10.80;62.20;;;;;;6117042;29;20190;-71
2023/11/08 02:24:28;;;;;;;9.25;2.72;;;10.80;62.30;;;;;;6117998;29;20040;-69
2023/11/08 02:27:29;;;;;;;3.83;2.38;;;10.80;62.30;;;;;;6118535;29;20130;-69
2023/11/08 02:30:31;;;;;;;8.95;2.10;;;10.70;62.20;;;;;;6117767;28;20043;-68
2023/11/08 02:33:32;;;;;;;4.15;1.92;;;10.70;62.00;;;;;;6140857;29;20028;-68
2023/11/08 02:36:33;;;;;;;7.25;2.53;;;10.70;61.90;;;;;;6140425;29;20043;-69
2023/11/08 02:39:34;;;;;;;5.40;2.75;;;10.60;62.00;;;;;;6127457;28;20038;-67
2023/11/08 02:42:39;;;;;;;4.05;2.40;;;10.60;62.00;;;;;;6117174;28;20039;-68
2023/11/08 02:45:40;;;;;;;2.88;2.08;;;10.60;62.00;;;;;;6118472;29;20121;-70
2023/11/08 02:48:42;;;;;;;4.88;1.98;;;10.60;61.80;;;;;;6116071;29;20048;-67
2023/11/08 02:51:43;;;;;;;2.20;1.40;;;10.60;61.70;;;;;;6117886;28;20115;-68
2023/11/08 02:54:44;;;;;;;5.57;1.70;;;10.60;61.40;;;;;;6116236;28;20032;-72
2023/11/08 02:57:45;;;;;;;6.40;2.10;;;10.60;61.10;;;;;;6100346;28;20032;-69
2023/11/08 03:00:49;;;;;;;5.57;1.85;;;10.60;61.20;;;;;;6116711;28;20461;-68
2023/11/08 03:03:50;;;;;;;2.97;1.55;;;10.50;61.80;;;;;;6118666;29;20035;-69
2023/11/08 03:06:52;;;;;;;2.40;1.55;;;10.50;60.90;;;;;;6158296;28;20580;-68
2023/11/08 03:09:54;;;;;;;4.95;2.10;;;10.50;61.00;;;;;;6217041;28;20057;-68
2023/11/08 03:12:55;;;;;;;5.30;2.00;;;10.50;61.10;;;;;;6138736;28;20042;-70
2023/11/08 03:15:57;;;;;;;3.20;1.92;;;10.50;60.90;;;;;;6117278;29;20127;-69
2023/11/08 03:18:57;;;;;;;3.03;1.52;;;10.40;60.90;;;;;;6115371;29;20043;-68
2023/11/08 03:22:00;;;;;;;3.95;1.75;;;10.30;60.90;;;;;;6116462;28;20032;-69
2023/11/08 03:25:02;;;;;;;3.40;1.48;;;10.40;61.00;;;;;;6117250;29;20051;-69
2023/11/08 03:28:04;;;;;;;4.75;1.70;;;10.40;60.90;;;;;;6115186;28;20042;-68
2023/11/08 03:31:05;;;;;;;3.40;1.63;;;10.40;60.90;;;;;;6122478;29;20035;-67
2023/11/08 03:34:05;;;;;;;5.45;1.90;;;10.40;60.90;;;;;;6140851;29;20048;-68
2023/11/08 03:37:06;;;;;;;5.88;2.10;;;10.40;60.90;;;;;;6140803;29;20035;-68
2023/11/08 03:40:11;;;;;;;7.20;2.95;;;10.40;61.00;;;;;;6123450;29;20122;-68
2023/11/08 03:43:12;;;;;;;7.78;3.70;;;10.40;61.20;;;;;;6116087;29;20044;-69
2023/11/08 03:46:13;;;;;;;8.70;3.58;;;10.40;61.40;;;;;;6118029;28;20046;-68
2023/11/08 03:49:14;;;;;;;12.93;3.17;;;10.30;61.50;;;;;;6116326;29;20040;-69
2023/11/08 03:52:16;;;;;;;8.48;2.95;;;10.30;61.80;;;;;;6117471;28;20043;-69
2023/11/08 03:55:18;;;;;;;10.05;3.28;;;10.20;62.10;;;;;;6117473;28;20038;-70
2023/11/08 03:58:19;;;;;;;5.82;2.60;;;10.20;62.40;;;;;;6115616;29;20035;-67
2023/11/08 04:01:20;;;;;;;9.50;3.25;;;10.10;62.70;;;;;;6099426;29;20048;-68
2023/11/08 04:04:21;;;;;;;7.53;3.10;;;10.10;62.80;;;;;;6117060;28;20044;-69
2023/11/08 04:07:23;;;;;;;5.82;3.17;;;10.10;62.90;;;;;;6117087;29;20032;-71
2023/11/08 04:10:24;;;;;;;5.35;2.83;;;10.10;63.00;;;;;;6114509;29;20036;-68
2023/11/08 04:13:25;;;;;;;6.97;2.90;;;10.20;63.10;;;;;;6093552;29;20032;-69
2023/11/08 04:16:27;;;;;;;5.22;2.65;;;10.10;63.00;;;;;;6093029;28;20040;-67
2023/11/08 04:19:28;;;;;;;10.13;3.28;;;10.10;63.00;;;;;;6092970;29;20040;-69
2023/11/08 04:22:28;;;;;;;6.95;3.03;;;10.10;63.00;;;;;;6092504;29;20142;-69
2023/11/08 04:25:30;;;;;;;8.43;3.55;;;10.10;63.00;;;;;;6090424;28;20058;-68
2023/11/08 04:28:32;;;;;;;5.53;2.90;;;10.10;63.20;;;;;;6092865;28;20481;-69
2023/11/08 04:31:34;;;;;;;8.90;3.70;;;10.10;63.20;;;;;;6105936;29;20062;-68
2023/11/08 04:34:35;;;;;;;4.80;3.63;;;10.00;63.60;;;;;;6106514;29;20028;-70
2023/11/08 04:37:38;;;;;;;7.43;4.05;;;9.90;63.80;;;;;;6091105;29;20055;-68
2023/11/08 04:40:39;;;;;;;9.52;3.70;;;9.90;64.20;;;;;;6112755;29;20391;-69
2023/11/08 04:43:42;;;;;;;12.43;3.92;;;9.80;64.60;;;;;;6115506;28;20031;-68
2023/11/08 04:46:43;;;;;;;16.73;4.78;;;9.70;64.70;;;;;;6116209;29;20053;-68
2023/11/08 04:49:49;;;;;;;7.43;4.40;;;9.70;65.00;;;;;;6090272;28;20052;-71
2023/11/08 04:52:50;;;;;;;9.07;5.05;;;9.70;65.10;;;;;;6108536;28;20032;-69
2023/11/08 04:55:51;;;;;;;7.53;4.63;;;9.60;65.10;;;;;;6115930;29;20035;-69
2023/11/08 04:58:52;;;;;;;12.30;5.40;;;9.60;65.30;;;;;;6115509;29;20611;-69
2023/11/08 05:01:54;;;;;;;13.57;4.45;;;9.60;65.50;;;;;;6114415;29;20077;-69
2023/11/08 05:04:55;;;;;;;13.88;3.50;;;9.50;65.60;;;;;;6114883;29;20556;-69
2023/11/08 05:07:56;;;;;;;7.13;2.97;;;9.50;65.60;;;;;;6115388;29;20035;-67
2023/11/08 05:10:57;;;;;;;9.18;3.13;;;9.50;65.60;;;;;;6115739;29;20170;-70
2023/11/08 05:13:58;;;;;;;5.38;3.20;;;9.50;65.60;;;;;;6115349;28;20051;-69
2023/11/08 05:17:04;;;;;;;6.85;3.08;;;9.50;65.70;;;;;;6115672;29;20727;-68
2023/11/08 05:20:08;;;;;;;5.63;2.38;;;9.40;65.80;;;;;;6115287;28;20065;-70
2023/11/08 05:23:12;;;;;;;7.60;2.92;;;9.40;65.90;;;;;;6115423;29;20051;-67
2023/11/08 05:26:13;;;;;;;5.30;2.90;;;9.40;66.00;;;;;;6113778;29;20046;-68
2023/11/08 05:29:14;;;;;;;8.73;3.67;;;9.40;66.10;;;;;;6113127;29;20118;-68
2023/11/08 05:32:17;;;;;;;5.70;2.70;;;9.40;66.10;;;;;;6130845;28;20028;-69
2023/11/08 05:35:19;;;;;;;6.90;3.40;;;9.50;66.00;;;;;;6139108;29;20088;-67
2023/11/08 05:38:20;;;;;;;8.02;4.00;;;9.50;65.90;;;;;;6124825;29;20088;-68
2023/11/08 05:41:20;;;;;;;4.05;2.58;;;9.50;65.90;;;;;;6123670;29;20076;-68
2023/11/08 05:44:22;;;;;;;12.18;3.08;;;9.50;65.90;;;;;;6131121;28;20031;-70
2023/11/08 05:47:26;;;;;;;7.07;3.38;;;9.50;65.80;;;;;;6130066;29;20046;-70
2023/11/08 05:50:26;;;;;;;4.43;3.22;;;9.50;65.80;;;;;;6127833;28;20036;-69
2023/11/08 05:53:28;;;;;;;7.38;3.13;;;9.60;65.90;;;;;;6118027;28;20158;-69
2023/11/08 05:56:29;;;;;;;5.68;2.75;;;9.60;65.80;;;;;;6119119;29;20123;-68
2023/11/08 05:59:30;;;;;;;3.85;2.22;;;9.60;65.70;;;;;;6119036;29;20114;-67
2023/11/08 06:02:32;;;;;;;3.97;1.60;;;9.60;65.40;;;;;;6118135;29;20086;-69
2023/11/08 06:05:33;;;;;;;5.82;2.10;;;9.70;65.30;;;;;;6117848;29;20176;-70
2023/11/08 06:08:37;;;;;;;4.90;1.77;;;9.70;65.00;;;;;;6118135;29;20062;-72
2023/11/08 06:11:38;;;;;;;2.60;1.80;;;9.70;64.60;;;;;;6116889;29;20136;-69
2023/11/08 06:14:39;;;;;;;2.28;1.77;;;9.80;64.30;;;;;;6118704;28;20032;-69
2023/11/08 06:17:40;;;;;;;3.53;1.55;;;9.70;63.80;;;;;;6118292;29;20038;-70
2023/11/08 06:20:41;;;;;;;2.97;1.80;;;9.60;63.30;;;;;;6118421;28;20035;-68
2023/11/08 06:23:44;;;;;;;2.03;1.45;;;9.60;62.90;;;;;;6118673;29;20028;-69
2023/11/08 06:26:44;;;;;;;3.53;1.75;;;9.50;62.70;;;;;;6116547;29;20032;-68
2023/11/08 06:29:45;;;;;;;3.95;2.25;;;9.50;62.70;;;;;;6118155;28;20465;-68
2023/11/08 06:32:46;;;;;;;5.53;2.13;;;9.50;62.80;;;;;;6116995;29;20035;-69
2023/11/08 06:35:47;;;;;;;6.97;3.17;;;9.50;62.90;;;;;;6117381;28;20030;-70
2023/11/08 06:38:48;;;;;;;7.10;2.90;;;9.40;63.10;;;;;;6116274;28;20113;-67
2023/11/08 06:41:50;;;;;;;9.55;3.58;;;9.40;63.40;;;;;;6118512;28;20035;-68
2023/11/08 06:44:52;;;;;;;27.02;4.10;;;9.40;63.70;;;;;;6118217;29;20043;-69
2023/11/08 06:47:53;;;;;;;5.43;3.42;;;9.40;64.10;;;;;;6116774;29;20032;-70
2023/11/08 06:50:54;;;;;;;7.72;3.47;;;9.30;64.30;;;;;;6127138;28;20024;-68
2023/11/08 06:53:54;;;;;;;5.40;3.22;;;9.30;64.60;;;;;;6158118;28;20111;-70
2023/11/08 06:56:56;;;;;;;5.13;3.20;;;9.30;64.90;;;;;;6116514;29;20090;-70
2023/11/08 06:59:58;;;;;;;6.68;3.40;;;9.40;64.90;;;;;;6116394;29;20031;-71
2023/11/08 07:03:00;;;;;;;4.00;2.75;;;9.40;65.00;;;;;;6116229;29;20032;-69
2023/11/08 07:06:04;;;;;;;8.15;3.60;;;9.50;65.00;;;;;;6118062;28;20050;-71
2023/11/08 07:09:06;;;;;;;11.57;3.45;;;9.50;65.00;;;;;;6118121;29;20051;-69
2023/11/08 07:12:08;;;;;;;10.75;4.30;;;9.50;65.00;;;;;;6116436;29;20027;-69
2023/11/08 07:15:09;;;;;;;5.30;3.13;;;9.50;65.10;;;;;;6116975;29;20031;-70
2023/11/08 07:18:14;;;;;;;7.55;2.80;;;9.50;65.20;;;;;;6101083;28;20035;-71
2023/11/08 07:21:21;;;;;;;5.32;2.72;;;9.50;65.40;;;;;;6118079;29;20039;-70
2023/11/08 07:24:22;;;;;;;13.70;4.15;;;9.50;65.40;;;;;;6117739;29;20135;-68
2023/11/08 07:27:25;;;;;;;6.75;3.70;;;9.50;65.50;;;;;;6117772;29;20047;-70
2023/11/08 07:30:27;;;;;;;3.72;2.60;;;9.50;65.40;;;;;;6117499;28;20028;-70
2023/11/08 07:33:28;;;;;;;6.97;3.67;;;9.60;65.20;;;;;;6139785;29;20802;-71
2023/11/08 07:36:29;;;;;;;6.43;3.40;;;9.60;65.00;;;;;;6136493;29;20149;-69
2023/11/08 07:39:30;;;;;;;6.32;3.53;;;9.60;65.00;;;;;;6117062;29;20071;-68
2023/11/08 07:42:32;;;;;;;9.05;3.55;;;9.60;65.00;;;;;;6115291;28;20093;-72
2023/11/08 07:45:35;;;;;;;6.88;3.80;;;9.70;65.10;;;;;;6099990;28;20044;-71
2023/11/08 07:48:36;;;;;;;8.20;3.83;;;9.70;65.00;;;;;;6115298;29;20047;-70
2023/11/08 07:51:37;;;;;;;11.18;4.07;;;9.80;64.90;;;;;;6152087;28;20033;-67
2023/11/08 07:54:39;;;;;;;13.85;3.65;;;9.80;64.90;;;;;;6241230;28;20036;-70
2023/11/08 07:57:40;;;;;;;10.57;4.13;;;9.80;64.80;;;;;;6241095;28;20034;-69
2023/11/08 08:00:45;;;;;;;7.78;3.45;;;9.90;64.80;;;;;;6239177;28;20469;-69
2023/11/08 08:03:48;;;;;;;12.43;4.55;;;10.00;64.70;;;;;;6240723;28;20107;-69
2023/11/08 08:06:50;;;;;;;8.75;3.60;;;10.10;64.60;;;;;;6222360;28;20107;-69
2023/11/08 08:09:51;;;;;;;9.82;3.53;;;10.20;64.60;;;;;;6240201;28;20041;-72
2023/11/08 08:12:52;;;;;;;6.60;2.47;;;10.30;64.30;;;;;;6138156;28;20126;-69
2023/11/08 08:15:53;;;;;;;3.10;1.95;;;10.40;64.90;;;;;;6114908;29;20042;-69
2023/11/08 08:18:54;;;;;;;6.47;2.53;;;10.50;63.50;;;;;;6116462;29;20040;-69
2023/11/08 08:21:55;;;;;;;3.67;1.85;;;10.60;62.00;;;;;;6099409;28;20040;-69
2023/11/08 08:24:56;;;;;;;4.22;2.67;;;10.70;61.10;;;;;;6116426;29;20214;-68
2023/11/08 08:27:58;;;;;;;3.92;2.17;;;10.70;60.60;;;;;;6114602;28;20516;-70
2023/11/08 08:30:59;;;;;;;12.73;2.45;;;10.70;60.10;;;;;;6114281;29;20040;-70
2023/11/08 08:34:00;;;;;;;5.00;2.08;;;10.80;60.00;;;;;;6114521;28;20031;-69
2023/11/08 08:37:01;;;;;;;6.07;2.35;;;10.90;59.90;;;;;;6116087;29;20357;-68
2023/11/08 08:40:11;;;;;;;7.13;2.10;;;11.00;59.30;;;;;;6114866;28;20042;-70
2023/11/08 08:43:12;;;;;;;8.23;2.65;;;11.10;58.90;;;;;;6098570;28;20032;-68
2023/11/08 08:46:14;;;;;;;5.80;3.42;;;11.30;58.70;;;;;;6157147;28;20039;-69
2023/11/08 08:49:15;;;;;;;5.22;2.40;;;11.30;58.60;;;;;;6113666;29;20728;-69
2023/11/08 08:52:16;;;;;;;7.05;3.00;;;11.40;58.40;;;;;;6114478;28;20076;-68
2023/11/08 08:55:18;;;;;;;5.68;3.00;;;11.50;58.30;;;;;;6115455;29;20023;-67
2023/11/08 08:58:19;;;;;;;11.07;4.50;;;11.50;58.00;;;;;;6117858;29;20048;-68
2023/11/08 09:01:19;;;;;;;8.32;3.35;;;11.60;58.00;;;;;;6121893;29;20048;-68
2023/11/08 09:04:20;;;;;;;5.68;3.17;;;11.60;58.10;;;;;;6120121;29;20039;-68
2023/11/08 09:07:21;;;;;;;5.38;2.72;;;11.70;58.20;;;;;;6115754;29;20181;-69
2023/11/08 09:10:23;;;;;;;15.73;2.72;;;11.80;58.10;;;;;;6114579;29;20385;-70
2023/11/08 09:13:24;;;;;;;8.57;3.42;;;11.80;58.10;;;;;;6114308;29;20024;-69
2023/11/08 09:16:26;;;;;;;12.10;3.80;;;11.80;57.90;;;;;;6116533;28;20130;-71
2023/11/08 09:19:27;;;;;;;11.48;4.03;;;11.90;57.90;;;;;;6115928;29;20372;-68
2023/11/08 09:22:28;;;;;;;8.35;4.03;;;11.90;57.70;;;;;;6114254;29;20790;-69
2023/11/08 09:25:28;;;;;;;6.82;4.10;;;12.00;57.70;;;;;;6098986;28;20036;-68
2023/11/08 09:28:29;;;;;;;11.15;4.60;;;12.10;57.60;;;;;;6113748;28;20123;-69
2023/11/08 09:31:30;;;;;;;11.38;4.82;;;12.10;57.80;;;;;;6124321;29;20169;-71
2023/11/08 09:34:32;;;;;;;7.50;4.35;;;12.20;57.70;;;;;;6139747;29;20054;-69
2023/11/08 09:37:33;;;;;;;8.55;4.25;;;12.30;57.60;;;;;;6137894;29;20384;-70
2023/11/08 09:40:34;;;;;;;11.25;4.97;;;12.30;57.50;;;;;;6116795;29;20032;-69
2023/11/08 09:43:38;;;;;;;13.02;6.22;;;12.40;57.60;;;;;;6114286;29;20035;-69
2023/11/08 09:46:41;;;;;;;17.02;5.32;;;12.40;57.60;;;;;;6114286;29;20035;-68
2023/11/08 09:49:42;;;;;;;11.90;5.38;;;12.50;57.60;;;;;;6115586;29;20113;-68
2023/11/08 09:52:43;;;;;;;9.40;5.05;;;12.70;57.20;;;;;;6114211;28;20076;-69
2023/11/08 09:55:44;;;;;;;14.57;6.32;;;12.90;56.90;;;;;;6115986;29;20043;-69
2023/11/08 09:58:46;;;;;;;10.60;6.60;;;13.20;56.50;;;;;;6115435;29;20444;-70
2023/11/08 10:01:49;;;;;;;15.13;7.13;;;13.50;56.30;;;;;;6114884;29;20023;-70
2023/11/08 10:04:51;;;;;;;10.57;6.03;;;13.80;55.80;;;;;;6113531;29;20035;-69
2023/11/08 10:07:53;;;;;;;9.30;5.07;;;14.00;54.90;;;;;;6097363;29;20372;-71
2023/11/08 10:10:58;;;;;;;9.88;5.05;;;14.20;54.70;;;;;;6097055;28;20110;-70
2023/11/08 10:14:00;;;;;;;15.27;5.95;;;14.30;54.80;;;;;;6114566;29;20024;-70
2023/11/08 10:17:03;;;;;;;12.30;5.32;;;14.50;54.40;;;;;;6113080;29;20050;-70
2023/11/08 10:20:08;;;;;;;15.07;6.15;;;14.70;53.90;;;;;;6113664;29;20555;-69
2023/11/08 10:23:24;;;;;;;15.48;6.68;;;14.90;53.20;;;;;;6113088;29;20036;-69
2023/11/08 10:26:27;;;;;;;7.68;4.55;;;15.00;53.30;;;;;;6116910;28;20036;-69
2023/11/08 10:29:28;;;;;;;8.70;4.82;;;15.30;52.00;;;;;;6118321;29;20055;-68
2023/11/08 10:32:29;;;;;;;7.95;3.50;;;15.40;51.30;;;;;;6118852;29;20058;-70
2023/11/08 10:35:37;;;;;;;10.75;4.05;;;15.50;51.00;;;;;;6117439;29;20131;-70
2023/11/08 10:38:39;;;;;;;10.25;4.45;;;15.80;50.40;;;;;;6118375;29;20475;-69
2023/11/08 10:41:44;;;;;;;9.68;4.07;;;16.10;50.10;;;;;;6116790;29;20036;-68
2023/11/08 10:44:46;;;;;;;9.20;3.67;;;16.50;49.30;;;;;;6117145;29;20035;-69
2023/11/08 10:47:48;;;;;;;8.13;3.08;;;16.90;48.50;;;;;;6116337;29;20557;-70
2023/11/08 10:50:50;;;;;;;7.05;3.55;;;17.40;48.00;;;;;;6118316;28;20028;-70
2023/11/08 10:53:51;;;;;;;27.75;4.50;;;17.90;47.10;;;;;;6122075;29;20028;-68
2023/11/08 10:56:56;;;;;;;6.38;2.70;;;18.40;45.50;;;;;;6132599;29;20055;-68
2023/11/08 11:00:00;;;;;;;13.23;3.22;;;18.80;44.40;;;;;;6117504;29;20039;-69
2023/11/08 11:03:09;;;;;;;6.60;2.28;;;19.30;42.90;;;;;;6101279;28;20365;-68
2023/11/08 11:06:11;;;;;;;2.88;1.55;;;19.50;41.60;;;;;;6116264;29;20110;-69
2023/11/08 11:09:12;;;;;;;7.40;1.88;;;19.80;40.70;;;;;;6117686;29;20176;-70
2023/11/08 11:12:22;;;;;;;2.88;1.85;;;20.20;40.50;;;;;;6115547;29;20797;-71
2023/11/08 11:16:05;;;;;;;3.08;2.05;;;20.80;40.10;;;;;;6117681;29;20662;-71
2023/11/08 11:19:12;;;;;;;4.97;2.30;;;21.40;38.30;;;;;;6117185;28;20052;-69
2023/11/08 11:22:18;;;;;;;8.52;2.97;;;22.00;37.50;;;;;;6117251;28;20114;-71
2023/11/08 11:25:57;;;;;;;5.68;2.20;;;22.50;35.90;;;;;;6117115;29;20074;-69
2023/11/08 11:29:01;;;;;;;3.33;1.83;;;23.00;34.90;;;;;;6073385;29;20035;-68
2023/11/08 11:32:07;;;;;;;2.22;1.60;;;23.20;34.10;;;;;;6099021;29;20039;-70
2023/11/08 11:35:07;;;;;;;4.03;1.75;;;23.60;34.20;;;;;;6074826;29;20078;-70
2023/11/08 11:38:10;;;;;;;6.35;1.58;;;23.90;32.80;;;;;;6089947;29;20198;-69
2023/11/08 11:41:23;;;;;;;4.18;1.80;;;24.00;32.00;;;;;;6090332;29;20551;-72
2023/11/08 11:44:49;;;;;;;3.97;1.73;;;23.80;32.40;;;;;;6090838;29;20087;-69
2023/11/08 11:47:53;;;;;;;3.88;2.30;;;23.30;33.30;;;;;;6043716;29;20103;-69
2023/11/08 11:50:54;;;;;;;3.35;1.60;;;23.30;32.80;;;;;;6045879;29;20041;-67
2023/11/08 11:53:56;;;;;;;4.43;2.00;;;22.70;33.20;;;;;;6070348;29;20036;-70
2023/11/08 11:56:57;;;;;;;3.40;2.13;;;21.80;34.60;;;;;;6055512;29;20037;-69
2023/11/08 12:00:00;;;;;;;3.10;1.88;;;21.10;35.80;;;;;;6066626;29;20067;-70
2023/11/08 12:03:01;;;;;;;2.90;1.98;;;20.50;37.00;;;;;;6066655;29;20049;-69
2023/11/08 12:06:02;;;;;;;3.38;1.98;;;19.90;38.20;;;;;;6050340;29;20393;-70
2023/11/08 12:09:04;;;;;;;5.88;1.90;;;19.50;38.90;;;;;;6065909;29;20048;-69
2023/11/08 12:12:06;;;;;;;4.53;1.95;;;19.00;39.50;;;;;;6066127;29;20099;-69
2023/11/08 12:15:18;;;;;;;5.13;1.95;;;18.70;40.30;;;;;;6066694;29;20056;-71
2023/11/08 12:18:19;;;;;;;4.68;2.13;;;18.30;40.40;;;;;;6065456;29;20469;-69
2023/11/08 12:21:20;;;;;;;10.45;2.45;;;18.00;41.20;;;;;;6066098;29;20036;-69
2023/11/08 12:24:21;;;;;;;6.03;2.17;;;17.70;41.70;;;;;;6088605;29;20071;-70
2023/11/08 12:27:22;;;;;;;9.35;2.22;;;17.40;42.30;;;;;;6115794;29;20111;-71
2023/11/08 12:30:23;;;;;;;9.20;2.30;;;17.30;42.60;;;;;;6113720;29;20631;-69
2023/11/08 12:33:27;;;;;;;3.85;1.52;;;17.20;42.90;;;;;;6116471;29;20039;-69
2023/11/08 12:36:27;;;;;;;12.02;2.67;;;17.00;43.20;;;;;;6115040;29;20051;-68
2023/11/08 12:39:29;;;;;;;3.63;1.73;;;16.90;43.50;;;;;;6115746;29;20040;-68
2023/11/08 12:42:31;;;;;;;5.03;2.08;;;16.90;43.70;;;;;;6099190;28;20119;-68
2023/11/08 12:45:33;;;;;;;3.95;2.17;;;16.90;44.00;;;;;;6115739;29;20114;-69
2023/11/08 12:48:35;;;;;;;6.28;2.33;;;16.90;44.20;;;;;;6115084;28;20669;-70
2023/11/08 12:51:38;;;;;;;5.38;2.67;;;16.90;44.30;;;;;;6114833;28;20050;-70
2023/11/08 12:54:38;;;;;;;3.55;1.83;;;16.80;44.50;;;;;;6119429;29;20043;-67
2023/11/08 12:57:41;;;;;;;7.78;2.13;;;16.80;44.50;;;;;;6130005;29;20411;-68
2023/11/08 13:00:42;;;;;;;5.57;2.53;;;16.80;44.50;;;;;;6125565;29;20122;-69
2023/11/08 13:03:42;;;;;;;4.03;2.10;;;16.70;44.80;;;;;;6117118;29;20039;-70
2023/11/08 13:06:45;;;;;;;2.83;1.70;;;16.70;45.20;;;;;;6116021;29;20425;-71
2023/11/08 13:09:46;;;;;;;5.05;1.88;;;16.60;45.50;;;;;;6114578;29;20063;-71
2023/11/08 13:12:47;;;;;;;5.10;2.38;;;16.60;45.90;;;;;;6101271;29;20718;-69
2023/11/08 13:15:50;;;;;;;9.75;2.60;;;16.60;46.00;;;;;;6110143;28;20028;-69
2023/11/08 13:18:51;;;;;;;4.00;2.17;;;16.60;46.00;;;;;;6116460;29;20127;-69
2023/11/08 13:21:52;;;;;;;7.32;3.20;;;16.60;46.10;;;;;;6114125;29;20040;-67
2023/11/08 13:24:53;;;;;;;7.70;2.28;;;16.60;46.20;;;;;;6131173;28;20032;-71
2023/11/08 13:27:55;;;;;;;3.67;2.00;;;16.70;46.20;;;;;;6196085;28;20148;-72
2023/11/08 13:30:57;;;;;;;3.05;1.83;;;16.60;46.20;;;;;;6216229;28;20031;-70
2023/11/08 13:33:59;;;;;;;7.38;2.22;;;16.60;46.40;;;;;;6137470;29;20255;-69
2023/11/08 13:37:02;;;;;;;3.50;1.63;;;16.60;46.40;;;;;;6137328;29;20354;-69
2023/11/08 13:40:06;;;;;;;5.57;2.47;;;16.70;46.60;;;;;;6122086;29;20040;-70
2023/11/08 13:43:07;;;;;;;8.80;2.10;;;16.70;46.60;;;;;;6114936;29;20066;-69
2023/11/08 13:46:08;;;;;;;6.47;2.88;;;16.70;46.60;;;;;;6113749;29;20120;-68
2023/11/08 13:49:10;;;;;;;4.95;2.05;;;16.60;46.70;;;;;;6114455;29;20548;-69
2023/11/08 13:52:11;;;;;;;7.93;1.50;;;16.60;46.70;;;;;;6113468;28;20093;-70
2023/11/08 13:55:12;;;;;;;6.97;2.00;;;16.70;46.80;;;;;;6113020;29;20081;-70
2023/11/08 13:58:13;;;;;;;4.95;1.85;;;16.70;46.90;;;;;;6115922;29;20632;-69
2023/11/08 14:01:16;;;;;;;5.85;1.58;;;16.70;46.90;;;;;;6118836;29;20034;-69
2023/11/08 14:04:17;;;;;;;6.68;2.33;;;16.70;46.90;;;;;;6117387;29;20468;-70
2023/11/08 14:07:17;;;;;;;4.80;2.00;;;16.70;47.00;;;;;;6118111;29;20034;-70
2023/11/08 14:10:18;;;;;;;6.55;2.40;;;16.70;46.90;;;;;;6118072;28;20047;-70
2023/11/08 14:13:19;;;;;;;7.10;1.58;;;16.70;46.90;;;;;;6116912;28;20027;-70
2023/11/08 14:16:20;;;;;;;4.93;2.10;;;16.70;46.90;;;;;;6116597;28;20124;-69
2023/11/08 14:19:23;;;;;;;4.50;2.03;;;16.70;46.80;;;;;;6118038;28;20110;-69
2023/11/08 14:22:26;;;;;;;4.05;1.70;;;16.70;46.60;;;;;;6159521;28;20040;-69
2023/11/08 14:25:27;;;;;;;2.60;1.48;;;16.70;46.30;;;;;;6240683;28;20115;-68
2023/11/08 14:28:27;;;;;;;5.65;1.90;;;16.70;46.80;;;;;;6240894;28;20034;-72
2023/11/08 14:31:29;;;;;;;2.63;1.58;;;16.60;46.30;;;;;;6243041;28;20831;-68
2023/11/08 14:34:30;;;;;;;5.28;1.70;;;16.70;46.50;;;;;;6243075;28;20037;-68
2023/11/08 14:37:31;;;;;;;7.57;1.58;;;16.70;46.30;;;;;;6242774;28;20123;-68
2023/11/08 14:40:32;;;;;;;10.48;1.80;;;16.70;45.90;;;;;;6241018;28;20030;-70
2023/11/08 14:43:34;;;;;;;3.83;1.63;;;16.70;45.70;;;;;;6243072;28;20045;-70
2023/11/08 14:46:37;;;;;;;5.50;1.85;;;16.70;45.90;;;;;;6226713;28;20083;-70
2023/11/08 14:49:47;;;;;;;2.35;1.42;;;16.70;46.10;;;;;;6225587;28;20116;-69
2023/11/08 14:52:51;;;;;;;4.30;1.83;;;16.70;46.20;;;;;;6157393;28;20125;-68
2023/11/08 14:55:51;;;;;;;3.75;1.55;;;16.60;46.20;;;;;;6119774;29;20036;-68
2023/11/08 14:58:53;;;;;;;1.77;1.15;;;16.60;46.10;;;;;;6122454;28;20042;-70
2023/11/08 15:01:58;;;;;;;2.08;1.20;;;16.60;45.90;;;;;;6118152;28;20111;-71
2023/11/08 15:04:59;;;;;;;2.63;0.90;;;16.50;45.70;;;;;;6119404;28;20131;-70
2023/11/08 15:08:04;;;;;;;2.42;1.00;;;16.50;45.60;;;;;;6117596;28;20031;-71
2023/11/08 15:11:09;;;;;;;3.05;1.30;;;16.40;45.30;;;;;;6100845;29;20047;-71
2023/11/08 15:14:10;;;;;;;5.10;0.95;;;16.40;45.20;;;;;;6118607;29;20035;-68
2023/11/08 15:17:11;;;;;;;5.25;1.15;;;16.30;45.10;;;;;;6117844;28;20028;-68
2023/11/08 15:20:17;;;;;;;4.68;0.85;;;16.30;45.20;;;;;;6118503;29;20709;-69
2023/11/08 15:23:18;;;;;;;1.02;0.80;;;16.30;45.20;;;;;;6118783;29;20447;-69
2023/11/08 15:26:19;;;;;;;1.13;0.68;;;16.20;45.10;;;;;;6117239;29;20054;-70
2023/11/08 15:29:23;;;;;;;1.35;0.80;;;16.20;45.30;;;;;;6116768;29;20122;-69
2023/11/08 15:32:27;;;;;;;2.83;1.25;;;16.10;45.30;;;;;;6132847;28;20458;-71
2023/11/08 15:35:31;;;;;;;2.33;0.82;;;16.00;45.40;;;;;;6140552;29;20046;-68
2023/11/08 15:38:31;;;;;;;2.50;0.80;;;15.90;46.20;;;;;;6138201;29;20031;-67
2023/11/08 15:41:34;;;;;;;2.63;1.25;;;15.80;45.70;;;;;;6116872;29;20136;-69
2023/11/08 15:44:40;;;;;;;2.05;1.13;;;15.70;45.80;;;;;;6118029;28;20031;-70
2023/11/08 15:47:48;;;;;;;3.63;1.13;;;15.70;46.00;;;;;;6119245;29;20042;-71
2023/11/08 15:50:50;;;;;;;2.33;1.40;;;15.60;46.20;;;;;;6118880;28;20039;-68